Kaaawa, HI (96730)

4:23 AM HST on January 25, 2015 (GMT -1000)
Kaneohe Bay Marine Corps Air Facility | Change Station
CLOSE
Current Station
Airport
Location: Kaneohe MCBH,
Elevation: 23 ft
Nearby Weather Stations
Active Advisory: High Surf Advisory

Elev 23 ft 21.45 °N, 157.76 °W | Updated 9 minutes ago

Light Rain
Light Rain
69 °F
Feels Like 69 °F
N
12
Wind Variable Wind from NE

Today
High -- | Low -- °F
--% Chance of Precip.
Yesterday
High -- | Low -- °F
Precip. -- in
7:11 AM 6:16 PM
Waxing Crescent, 32% visible
Pressure 30.04 in
Visibility -9999.0 miles
Clouds Few 2400 ft
Mostly Cloudy 3900 ft
Overcast 4700 ft
Dew Point 63 °F
Humidity 81%
Rainfall 0.00 in
Snow Depth Not available.
UV 0 out of 12
Pollen Not available.
Air Quality Not available.
Flu Activity Not available.
SPECI PHNG 251414Z AUTO 05010KT -RA FEW024 BKN039 OVC047 21/17 A3004 RMK AO2 P0000 T02060172 $

More Conditions Fewer Conditions

Pressure 30.04 in
Visibility -9999.0 miles
Clouds Few 2400 ft
Mostly Cloudy 3900 ft
Overcast 4700 ft
Dew Point 63 °F
Humidity 81%
Rainfall 0.00 in
Snow Depth Not available.
UV 0 out of 12
Pollen Not available.
Air Quality Not available.
Flu Activity Not available.
SPECI PHNG 251414Z AUTO 05010KT -RA FEW024 BKN039 OVC047 21/17 A3004 RMK AO2 P0000 T02060172 $

More Conditions Fewer Conditions

10-Day Weather Forecast

Almanac

Astronomy

Jan. 25, 2015 Rise Set
Actual Time
Civil Twilight
Nautical Twilight
Astronomical Twilight
Moon
Length of Visible Light
Length of Day
Tomorrow will be .
, % of the Moon is Illuminated

Today's Extremes

State Highs State Lows

Community

WunderPhotos

Upload Photos

1,789,894 photos uploaded!

WunderBlogs® & News

Nearby

Air Quality

  Air Quality AQ Index Pollutant
Not available.

Snow Depth

Station Depth Elevation

Earthquake Activity

City Distance Mag. Time & Date
Minimum magnitude displayed is 2.5.

Coastal Water Temperatures

Place Temperature

Nearby Weather Stations